createdAt,value
2023-04-06T00:00:14.396Z,102148.88
2023-04-06T00:02:44.514Z,102167.16
2023-04-06T00:05:14.660Z,102139.91
2023-04-06T00:07:44.836Z,102149.38
2023-04-06T00:10:15.179Z,102152.84
2023-04-06T00:12:45.287Z,102151.91
2023-04-06T00:15:15.779Z,102156.22
2023-04-06T00:17:46.054Z,102151.72
2023-04-06T00:20:16.957Z,102152.47
2023-04-06T00:22:47.476Z,102146.13
2023-04-06T00:25:17.797Z,102115.31
2023-04-06T00:31:47.479Z,102151.78
2023-04-06T00:34:17.634Z,102133.00
2023-04-06T00:36:47.658Z,102149.66
2023-04-06T00:39:20.346Z,102137.25
2023-04-06T00:41:53.643Z,102155.47
2023-04-06T00:44:23.910Z,102142.16
2023-04-06T00:46:54.022Z,102133.56
2023-04-06T00:49:24.475Z,102121.94
2023-04-06T00:51:54.630Z,102138.69
2023-04-06T00:54:24.772Z,102130.63
2023-04-06T00:56:55.102Z,102146.41
2023-04-06T00:59:25.647Z,102129.56
2023-04-06T01:01:56.434Z,102123.22
2023-04-06T01:04:26.657Z,102131.13
2023-04-06T01:06:56.750Z,102091.56
2023-04-06T01:09:29.783Z,102135.38
2023-04-06T01:12:00.307Z,102139.69
2023-04-06T01:14:30.757Z,102131.75
2023-04-06T01:17:01.774Z,102138.81
2023-04-06T01:19:32.120Z,102140.34
2023-04-06T01:22:02.269Z,102142.03
2023-04-06T01:24:32.525Z,102127.03
2023-04-06T01:27:02.850Z,102136.59
2023-04-06T01:29:33.086Z,102146.13
2023-04-06T01:32:03.873Z,102135.38
2023-04-06T01:34:33.973Z,102132.69
2023-04-06T01:37:04.160Z,102151.75
2023-04-06T01:39:34.282Z,102099.88
2023-04-06T01:42:04.413Z,102136.84
2023-04-06T01:44:34.528Z,102141.19
2023-04-06T01:47:04.760Z,102119.13
2023-04-06T01:49:35.143Z,102139.28
2023-04-06T01:52:05.654Z,102134.69
2023-04-06T01:54:35.869Z,102140.72
2023-04-06T01:57:06.194Z,102136.38
2023-04-06T01:59:36.514Z,102140.72
2023-04-06T02:02:06.800Z,102138.84
2023-04-06T02:04:36.942Z,102128.19
2023-04-06T02:07:07.080Z,102137.94
2023-04-06T02:09:37.328Z,102125.72
2023-04-06T02:12:07.402Z,102138.72
2023-04-06T02:14:37.539Z,102137.84
2023-04-06T02:17:07.655Z,102135.28
2023-04-06T02:19:37.750Z,102135.19
2023-04-06T02:22:07.962Z,102127.97
2023-04-06T02:24:38.024Z,102128.94
2023-04-06T02:27:08.169Z,102134.94
2023-04-06T02:29:38.324Z,102135.44
2023-04-06T02:32:08.507Z,102130.16
2023-04-06T02:34:38.600Z,102141.28
2023-04-06T02:37:08.724Z,102146.56
2023-04-06T02:39:38.944Z,102131.56
2023-04-06T02:42:09.959Z,102142.91
2023-04-06T02:44:40.125Z,102115.38
2023-04-06T02:47:10.354Z,102131.09
2023-04-06T02:49:40.677Z,102147.69
2023-04-06T02:52:10.796Z,102151.94
2023-04-06T02:54:41.037Z,102148.50
2023-04-06T02:57:11.175Z,102131.81
2023-04-06T02:59:41.388Z,102136.31
2023-04-06T03:02:11.897Z,102127.41
2023-04-06T03:04:41.936Z,102132.44
2023-04-06T03:07:12.186Z,102142.06
2023-04-06T03:09:43.317Z,102140.22
2023-04-06T03:12:13.482Z,102149.72
2023-04-06T03:14:43.593Z,102135.50
2023-04-06T03:17:13.737Z,102144.34
2023-04-06T03:19:43.974Z,102154.50
2023-04-06T03:22:14.003Z,102158.69
2023-04-06T03:24:44.058Z,102152.56
2023-04-06T03:27:14.181Z,102154.13
2023-04-06T03:29:44.564Z,102145.97
2023-04-06T03:32:14.589Z,102160.84
2023-04-06T03:34:44.804Z,102149.38
2023-04-06T03:37:14.907Z,102152.09
2023-04-06T03:39:45.049Z,102149.50
2023-04-06T03:42:15.176Z,102157.06
2023-04-06T03:44:45.764Z,102153.63
2023-04-06T03:47:15.885Z,102138.59
2023-04-06T03:49:46.072Z,102156.19
2023-04-06T03:52:16.458Z,102149.19
2023-04-06T03:54:46.510Z,102147.31
2023-04-06T03:57:16.683Z,102161.75
2023-04-06T03:59:46.911Z,102154.00
2023-04-06T04:02:17.040Z,102154.78
2023-04-06T04:04:47.164Z,102156.56
2023-04-06T04:07:17.227Z,102150.22
2023-04-06T04:09:47.293Z,102146.50
2023-04-06T04:12:17.880Z,102167.53
2023-04-06T04:14:47.982Z,102172.72
2023-04-06T04:17:18.089Z,102170.16
2023-04-06T04:19:48.284Z,102171.94
2023-04-06T04:22:18.482Z,102171.03
2023-04-06T04:24:48.577Z,102171.03
2023-04-06T04:27:18.731Z,102171.84
2023-04-06T04:29:48.801Z,102169.84
2023-04-06T04:32:19.116Z,102150.69
2023-04-06T04:34:49.317Z,102175.28
2023-04-06T04:37:19.392Z,102169.19
2023-04-06T04:39:49.511Z,102171.84
2023-04-06T04:42:19.632Z,102176.63
2023-04-06T04:44:49.705Z,102179.09
2023-04-06T04:47:20.264Z,102177.34
2023-04-06T04:49:50.599Z,102181.75
2023-04-06T04:52:20.853Z,102180.94
2023-04-06T04:54:51.105Z,102164.56
2023-04-06T04:57:21.388Z,102155.75
2023-04-06T04:59:52.110Z,102158.47
2023-04-06T05:02:22.456Z,102176.03
2023-04-06T05:04:52.660Z,102168.81
2023-04-06T05:07:22.856Z,102153.91
2023-04-06T05:09:53.064Z,102173.66
2023-04-06T05:12:23.297Z,102171.00
2023-04-06T05:14:54.184Z,102182.66
2023-04-06T05:17:24.373Z,102178.38
2023-04-06T05:19:54.502Z,102162.84
2023-04-06T05:22:24.640Z,102161.81
2023-04-06T05:24:56.726Z,102186.13
2023-04-06T05:27:32.687Z,102187.25
2023-04-06T05:30:03.328Z,102189.34
2023-04-06T05:32:33.603Z,102167.75
2023-04-06T05:35:03.992Z,102173.47
2023-04-06T05:37:35.849Z,102166.81
2023-04-06T05:40:06.779Z,102181.25
2023-04-06T05:42:40.000Z,102175.63
2023-04-06T05:45:20.487Z,102181.06
2023-04-06T05:47:50.687Z,102166.53
2023-04-06T05:50:21.004Z,102152.09
2023-04-06T05:52:51.142Z,102171.59
2023-04-06T05:55:21.226Z,102174.53
2023-04-06T05:57:51.377Z,102174.84
2023-04-06T06:00:21.837Z,102182.28
2023-04-06T06:02:52.015Z,102177.47
2023-04-06T06:05:22.451Z,102172.59
2023-04-06T06:07:53.030Z,102185.69
2023-04-06T06:10:23.138Z,102179.09
2023-04-06T06:12:53.217Z,102177.44
2023-04-06T06:15:23.332Z,102181.38
2023-04-06T06:17:53.479Z,102171.97
2023-04-06T06:20:23.702Z,102179.47
2023-04-06T06:22:54.271Z,102165.84
2023-04-06T06:25:24.504Z,102182.25
2023-04-06T06:27:54.675Z,102173.16
2023-04-06T06:30:24.737Z,102163.06
2023-04-06T06:32:54.962Z,102153.75
2023-04-06T06:35:25.316Z,102182.91
2023-04-06T06:37:55.868Z,102165.75
2023-04-06T06:40:28.455Z,102177.50
2023-04-06T06:42:58.772Z,102171.88
2023-04-06T06:45:30.796Z,102156.09
2023-04-06T06:48:01.296Z,102161.84
2023-04-06T06:50:31.567Z,102173.50
2023-04-06T06:53:01.706Z,102183.50
2023-04-06T06:55:32.036Z,102179.66
2023-04-06T06:58:02.266Z,102173.06
2023-04-06T07:00:32.371Z,102182.94
2023-04-06T07:03:02.951Z,102174.53
2023-04-06T07:05:33.926Z,102175.91
2023-04-06T07:08:04.293Z,102177.19
2023-04-06T07:10:34.422Z,102178.31
2023-04-06T07:13:04.522Z,102187.13
2023-04-06T07:15:34.625Z,102167.28
2023-04-06T07:18:04.847Z,102181.50
2023-04-06T07:20:34.922Z,102169.44
2023-04-06T07:23:08.594Z,102173.25
2023-04-06T07:25:38.832Z,102173.50
2023-04-06T07:28:09.032Z,102159.66
2023-04-06T07:30:39.720Z,102181.09
2023-04-06T07:33:09.912Z,102170.81
2023-04-06T07:35:40.613Z,102168.19
2023-04-06T07:38:10.807Z,102180.41
2023-04-06T07:40:41.046Z,102180.50
2023-04-06T07:43:11.139Z,102156.16
2023-04-06T07:45:41.327Z,102165.19
2023-04-06T07:48:11.471Z,102146.38
2023-04-06T07:50:42.037Z,102152.22
2023-04-06T07:53:12.255Z,102159.34
2023-04-06T07:55:42.417Z,102175.19
2023-04-06T07:58:16.943Z,102179.75
2023-04-06T08:00:47.150Z,102174.97
2023-04-06T08:03:18.086Z,102176.22
2023-04-06T08:05:48.271Z,102164.06
2023-04-06T08:08:18.353Z,102173.25
2023-04-06T08:10:49.896Z,102148.16
2023-04-06T08:13:20.660Z,102168.31
2023-04-06T08:15:50.863Z,102155.38
2023-04-06T08:18:21.217Z,102160.00
2023-04-06T08:20:51.456Z,102157.72
2023-04-06T08:23:21.630Z,102128.97
2023-04-06T08:25:53.889Z,102154.56
2023-04-06T08:28:24.146Z,102157.34
2023-04-06T08:30:54.413Z,102151.22
2023-04-06T08:33:24.572Z,102140.28
2023-04-06T08:35:54.752Z,102134.84
2023-04-06T08:38:24.953Z,102131.88
2023-04-06T08:40:55.193Z,102137.78
2023-04-06T08:43:28.631Z,102153.78
2023-04-06T08:46:00.294Z,102158.38
2023-04-06T08:48:30.711Z,102156.66
2023-04-06T08:51:00.910Z,102144.38
2023-04-06T08:53:31.042Z,102163.56
2023-04-06T08:56:02.390Z,102155.72
2023-04-06T08:58:38.977Z,102163.63
2023-04-06T09:01:15.203Z,102163.50
2023-04-06T09:03:46.206Z,102167.75
2023-04-06T09:06:16.734Z,102154.00
2023-04-06T09:08:46.916Z,102148.75
2023-04-06T09:11:17.152Z,102153.06
2023-04-06T09:13:49.606Z,102142.38
2023-04-06T09:16:20.385Z,102141.00
2023-04-06T09:18:51.263Z,102161.81
2023-04-06T09:21:23.754Z,102160.00
2023-04-06T09:24:02.751Z,102146.81
2023-04-06T09:26:34.962Z,102143.16
2023-04-06T09:29:05.387Z,102152.69
2023-04-06T09:31:35.597Z,102149.00
2023-04-06T09:34:06.055Z,102130.31
2023-04-06T09:36:42.283Z,102147.72
2023-04-06T09:39:14.567Z,102153.50
2023-04-06T09:41:51.592Z,102152.38
2023-04-06T09:44:21.597Z,102165.47
2023-04-06T09:47:00.381Z,102156.75
2023-04-06T09:49:35.247Z,102151.38
2023-04-06T09:52:10.077Z,102159.88
2023-04-06T09:54:42.032Z,102135.25
2023-04-06T09:57:30.249Z,102156.38
2023-04-06T10:00:12.564Z,102158.38
2023-04-06T10:03:07.827Z,102146.53
2023-04-06T10:05:48.094Z,102139.06
2023-04-06T10:08:20.188Z,102157.66
2023-04-06T10:10:51.956Z,102138.94
2023-04-06T10:13:22.754Z,102145.84
2023-04-06T10:15:53.472Z,102148.09
2023-04-06T10:18:24.167Z,102146.56
2023-04-06T10:21:17.396Z,102142.38
2023-04-06T10:23:55.093Z,102144.44
2023-04-06T10:26:25.206Z,102142.16
2023-04-06T10:28:56.475Z,102134.63
2023-04-06T10:31:28.632Z,102140.22
2023-04-06T10:34:01.235Z,102136.09
2023-04-06T10:36:35.806Z,102124.09
2023-04-06T10:39:07.607Z,102120.25
2023-04-06T10:41:45.959Z,102112.81
2023-04-06T10:44:22.654Z,102125.28
2023-04-06T10:47:01.981Z,102125.28
2023-04-06T10:49:32.066Z,102130.47
2023-04-06T10:52:02.260Z,102113.72
2023-04-06T10:54:33.905Z,102117.91
2023-04-06T10:57:04.150Z,102109.94
2023-04-06T10:59:34.460Z,102123.03
2023-04-06T11:02:04.684Z,102119.69
2023-04-06T11:04:35.219Z,102104.00
2023-04-06T11:07:05.402Z,102118.81
2023-04-06T11:09:37.848Z,102096.03
2023-04-06T11:12:07.953Z,102116.00
2023-04-06T11:14:38.385Z,102112.38
2023-04-06T11:17:08.774Z,102113.22
2023-04-06T11:19:39.043Z,102113.34
2023-04-06T11:22:09.512Z,102095.88
2023-04-06T11:24:39.646Z,102114.44
2023-04-06T11:27:10.092Z,102097.88
2023-04-06T11:29:45.057Z,102108.25
2023-04-06T11:32:23.438Z,102098.34
2023-04-06T11:34:53.645Z,102093.84
2023-04-06T11:37:28.553Z,102085.88
2023-04-06T11:39:58.956Z,102097.31
2023-04-06T11:42:30.737Z,102096.66
2023-04-06T11:45:01.527Z,102087.22
2023-04-06T11:47:36.689Z,102062.66
2023-04-06T11:50:14.849Z,102062.63
2023-04-06T11:52:45.121Z,102067.00
2023-04-06T11:55:16.944Z,102057.56
2023-04-06T11:57:47.245Z,102060.06
2023-04-06T12:00:17.996Z,102077.31
2023-04-06T12:02:51.269Z,102075.47
2023-04-06T12:05:21.620Z,102069.88
2023-04-06T12:07:51.777Z,102064.41
2023-04-06T12:10:22.052Z,102058.84
2023-04-06T12:12:52.230Z,102062.97
2023-04-06T12:15:23.468Z,102053.97
2023-04-06T12:17:53.753Z,102052.03
2023-04-06T12:20:27.626Z,102057.28
2023-04-06T12:22:58.025Z,102064.81
2023-04-06T12:25:28.869Z,102059.38
2023-04-06T12:28:00.151Z,102040.78
2023-04-06T12:30:30.607Z,102064.19
2023-04-06T12:33:01.641Z,102043.25
2023-04-06T12:35:35.889Z,102034.41
2023-04-06T12:38:06.335Z,102042.28
2023-04-06T12:40:40.330Z,102042.38
2023-04-06T12:43:11.108Z,102009.44
2023-04-06T12:45:47.481Z,102045.59
2023-04-06T12:48:21.623Z,102023.97
2023-04-06T12:50:59.735Z,102037.56
2023-04-06T12:53:29.865Z,102025.53
2023-04-06T12:56:01.692Z,102042.19
2023-04-06T12:58:31.908Z,102037.19
2023-04-06T13:01:04.274Z,102023.25
2023-04-06T13:03:34.858Z,102018.94
2023-04-06T13:06:05.132Z,102024.78
2023-04-06T13:08:35.532Z,102021.84
2023-04-06T13:11:06.413Z,102004.00
2023-04-06T13:13:37.709Z,102028.41
2023-04-06T13:16:09.536Z,102004.53
2023-04-06T13:18:40.177Z,102012.16
2023-04-06T13:21:15.172Z,102011.28
2023-04-06T13:23:45.540Z,102010.97
2023-04-06T13:26:16.376Z,102014.41
2023-04-06T13:28:46.683Z,102009.84
2023-04-06T13:31:16.886Z,102009.03
2023-04-06T13:33:47.063Z,102014.09
2023-04-06T13:36:18.314Z,101998.41
2023-04-06T13:38:48.621Z,102004.63
2023-04-06T13:41:22.554Z,101991.56
2023-04-06T13:43:52.697Z,102009.91
2023-04-06T13:46:25.236Z,102007.97
2023-04-06T13:48:55.895Z,102006.06
2023-04-06T13:51:27.689Z,102003.38
2023-04-06T13:53:57.842Z,101990.97
2023-04-06T13:56:27.953Z,101995.56
2023-04-06T13:58:58.433Z,101998.28
2023-04-06T14:01:28.926Z,101993.75
2023-04-06T14:03:59.130Z,101972.00
2023-04-06T14:06:31.600Z,101997.34
2023-04-06T14:09:02.271Z,101990.25
2023-04-06T14:11:32.985Z,101970.19
2023-04-06T14:14:03.127Z,101987.50
2023-04-06T14:16:33.284Z,101972.50
2023-04-06T14:19:04.390Z,101979.41
2023-04-06T14:21:34.815Z,101983.69
2023-04-06T14:24:05.076Z,101983.66
2023-04-06T14:26:36.468Z,101980.13
2023-04-06T14:29:07.044Z,101970.63
2023-04-06T14:31:38.232Z,101974.91
2023-04-06T14:34:08.541Z,101962.72
2023-04-06T14:36:39.597Z,101963.53
2023-04-06T14:39:11.036Z,101965.97
2023-04-06T14:41:42.011Z,101954.44
2023-04-06T14:44:13.439Z,101956.78
2023-04-06T14:46:44.189Z,101950.69
2023-04-06T14:49:15.314Z,101955.13
2023-04-06T14:51:45.391Z,101964.69
2023-04-06T14:54:15.848Z,101961.03
2023-04-06T14:56:46.020Z,101967.00
2023-04-06T14:59:16.128Z,101934.31
2023-04-06T15:01:46.337Z,101962.38
2023-04-06T15:04:16.688Z,101957.22
2023-04-06T15:06:46.852Z,101954.53
2023-04-06T15:09:17.140Z,101965.81
2023-04-06T15:11:47.183Z,101960.47
2023-04-06T15:14:17.368Z,101947.06
2023-04-06T15:16:47.410Z,101957.72
2023-04-06T15:19:17.600Z,101965.47
2023-04-06T15:21:47.670Z,101962.72
2023-04-06T15:24:17.817Z,101948.56
2023-04-06T15:26:48.090Z,101938.63
2023-04-06T15:29:18.350Z,101949.19
2023-04-06T15:31:48.489Z,101962.19
2023-04-06T15:34:19.119Z,101938.72
2023-04-06T15:36:49.309Z,101949.19
2023-04-06T15:39:19.456Z,101941.91
2023-04-06T15:41:49.551Z,101948.72
2023-04-06T15:44:20.326Z,101950.22
2023-04-06T15:46:51.932Z,101946.53
2023-04-06T15:49:22.142Z,101953.41
2023-04-06T15:51:52.309Z,101942.09
2023-04-06T15:54:22.477Z,101909.72
2023-04-06T15:56:52.729Z,101919.47
2023-04-06T15:59:22.862Z,101935.06
2023-04-06T16:01:54.191Z,101929.13
2023-04-06T16:04:24.632Z,101922.94
2023-04-06T16:06:54.757Z,101930.53
2023-04-06T16:09:24.954Z,101922.63
2023-04-06T16:11:55.153Z,101915.81
2023-04-06T16:14:25.354Z,101923.56
2023-04-06T16:16:55.591Z,101923.41
2023-04-06T16:19:25.686Z,101921.84
2023-04-06T16:21:55.919Z,101930.44
2023-04-06T16:24:26.036Z,101926.94
2023-04-06T16:26:57.599Z,101925.97
2023-04-06T16:29:28.069Z,101921.34
2023-04-06T16:31:58.941Z,101927.66
2023-04-06T16:34:32.962Z,101910.16
2023-04-06T16:37:03.200Z,101920.47
2023-04-06T16:39:33.391Z,101912.50
2023-04-06T16:42:03.564Z,101928.06
2023-04-06T16:44:33.707Z,101929.13
2023-04-06T16:47:04.400Z,101915.19
2023-04-06T16:49:34.434Z,101919.53
2023-04-06T16:52:06.464Z,101919.59
2023-04-06T16:54:36.552Z,101924.75
2023-04-06T16:57:06.822Z,101915.09
2023-04-06T16:59:36.844Z,101913.28
2023-04-06T17:02:07.110Z,101904.59
2023-04-06T17:04:37.975Z,101912.34
2023-04-06T17:07:08.152Z,101897.41
2023-04-06T17:09:38.343Z,101918.16
2023-04-06T17:12:09.408Z,101895.16
2023-04-06T17:14:39.774Z,101907.63
2023-04-06T17:17:09.938Z,101905.16
2023-04-06T17:19:40.080Z,101897.31
2023-04-06T17:22:10.447Z,101916.41
2023-04-06T17:24:40.553Z,101906.72
2023-04-06T17:27:10.626Z,101911.25
2023-04-06T17:29:40.834Z,101907.72
2023-04-06T17:32:12.076Z,101904.16
2023-04-06T17:34:42.211Z,101903.56
2023-04-06T17:37:12.498Z,101891.91
2023-04-06T17:39:43.218Z,101915.53
2023-04-06T17:42:13.742Z,101907.66
2023-04-06T17:44:44.436Z,101895.44
2023-04-06T17:47:14.848Z,101911.16
2023-04-06T17:49:45.620Z,101904.03
2023-04-06T17:52:15.754Z,101902.47
2023-04-06T17:54:46.590Z,101905.66
2023-04-06T17:57:16.812Z,101877.66
2023-04-06T17:59:46.872Z,101905.53
2023-04-06T18:02:17.327Z,101911.56
2023-04-06T18:04:51.618Z,101899.25
2023-04-06T18:07:21.942Z,101898.31
2023-04-06T18:09:52.270Z,101908.81
2023-04-06T18:12:22.442Z,101897.28
2023-04-06T18:14:52.845Z,101909.75
2023-04-06T18:17:23.028Z,101905.41
2023-04-06T18:19:53.112Z,101893.06
2023-04-06T18:22:23.484Z,101925.44
2023-04-06T18:24:53.856Z,101905.25
2023-04-06T18:27:25.586Z,101907.16
2023-04-06T18:30:00.313Z,101901.97
2023-04-06T18:32:30.848Z,101935.94
2023-04-06T18:35:01.243Z,101926.38
2023-04-06T18:37:31.423Z,101927.19
2023-04-06T18:40:01.590Z,101913.16
2023-04-06T18:42:31.753Z,101928.19
2023-04-06T18:45:01.949Z,101925.72
2023-04-06T18:47:32.188Z,101919.63
2023-04-06T18:50:02.775Z,101925.84
2023-04-06T18:52:32.910Z,101930.28
2023-04-06T18:55:03.181Z,101934.69
2023-04-06T18:57:35.559Z,101922.53
2023-04-06T19:00:07.539Z,101931.38
2023-04-06T19:02:38.975Z,101923.59
2023-04-06T19:05:11.419Z,101905.31
2023-04-06T19:07:48.186Z,101911.34
2023-04-06T19:10:18.469Z,101912.41
2023-04-06T19:12:49.796Z,101922.22
2023-04-06T19:15:20.098Z,101906.50
2023-04-06T19:17:50.669Z,101886.41
2023-04-06T19:20:21.393Z,101917.28
2023-04-06T19:22:51.632Z,101908.66
2023-04-06T19:25:21.856Z,101912.13
2023-04-06T19:27:52.028Z,101904.16
2023-04-06T19:30:22.532Z,101921.72
2023-04-06T19:32:53.112Z,101922.66
2023-04-06T19:35:24.744Z,101923.50
2023-04-06T19:37:55.112Z,101913.09
2023-04-06T19:40:26.073Z,101900.09
2023-04-06T19:42:57.414Z,101901.81
2023-04-06T19:45:30.355Z,101910.69
2023-04-06T19:48:01.705Z,101903.66
2023-04-06T19:50:32.666Z,101911.59
2023-04-06T19:53:03.020Z,101909.75
2023-04-06T19:55:33.164Z,101896.50
2023-04-06T19:58:04.598Z,101898.38
2023-04-06T20:00:36.487Z,101913.25
2023-04-06T20:03:08.812Z,101903.06
2023-04-06T20:05:39.447Z,101859.41
2023-04-06T20:08:09.715Z,101885.94
2023-04-06T20:10:39.862Z,101884.06
2023-04-06T20:13:10.253Z,101873.81
2023-04-06T20:15:40.638Z,101876.19
2023-04-06T20:18:10.907Z,101880.53
2023-04-06T20:20:41.361Z,101870.16
2023-04-06T20:23:13.023Z,101884.16
2023-04-06T20:25:43.466Z,101878.91
2023-04-06T20:28:14.041Z,101896.34
2023-04-06T20:30:44.252Z,101899.63
2023-04-06T20:33:14.667Z,101912.75
2023-04-06T20:35:44.959Z,101902.28
2023-04-06T20:38:15.863Z,101899.84
2023-04-06T20:40:48.369Z,101886.03
2023-04-06T20:43:20.797Z,101907.25
2023-04-06T20:45:52.701Z,101883.38
2023-04-06T20:48:23.430Z,101906.50
2023-04-06T20:50:53.626Z,101889.84
2023-04-06T20:53:24.277Z,101888.91
2023-04-06T20:55:54.821Z,101898.59
2023-04-06T20:58:26.977Z,101903.91
2023-04-06T21:00:57.034Z,101895.28
2023-04-06T21:03:27.363Z,101903.09
2023-04-06T21:05:59.217Z,101900.56
2023-04-06T21:08:29.501Z,101890.91
2023-04-06T21:11:00.281Z,101880.47
2023-04-06T21:13:30.632Z,101879.56
2023-04-06T21:16:01.771Z,101884.94
2023-04-06T21:18:32.263Z,101884.03
2023-04-06T21:21:02.610Z,101869.25
2023-04-06T21:23:32.832Z,101864.75
2023-04-06T21:26:03.689Z,101863.09
2023-04-06T21:28:34.149Z,101866.78
2023-04-06T21:31:08.109Z,101850.31
2023-04-06T21:33:38.391Z,101868.66
2023-04-06T21:36:09.201Z,101852.88
2023-04-06T21:38:39.332Z,101864.34
2023-04-06T21:41:09.794Z,101862.59
2023-04-06T21:43:40.075Z,101849.53
2023-04-06T21:46:11.291Z,101866.06
2023-04-06T21:48:41.498Z,101843.59
2023-04-06T21:51:17.906Z,101851.44
2023-04-06T21:53:48.199Z,101847.00
2023-04-06T21:56:23.335Z,101852.41
2023-04-06T21:58:54.346Z,101842.91
2023-04-06T22:01:24.555Z,101839.34
2023-04-06T22:03:58.346Z,101833.22
2023-04-06T22:06:30.162Z,101843.50
2023-04-06T22:09:02.754Z,101832.28
2023-04-06T22:11:33.018Z,101835.09
2023-04-06T22:14:05.956Z,101802.56
2023-04-06T22:16:36.603Z,101826.34
2023-04-06T22:19:07.079Z,101829.00
2023-04-06T22:21:37.375Z,101801.19
2023-04-06T22:24:07.809Z,101796.06
2023-04-06T22:26:38.132Z,101806.63
2023-04-06T22:29:08.344Z,101799.06
2023-04-06T22:31:38.590Z,101801.59
2023-04-06T22:34:09.043Z,101797.16
2023-04-06T22:36:39.311Z,101805.16
2023-04-06T22:39:09.662Z,101797.31
2023-04-06T22:41:40.108Z,101792.91
2023-04-06T22:44:10.184Z,101795.59
2023-04-06T22:46:40.481Z,101779.00
2023-04-06T22:49:10.758Z,101784.25
2023-04-06T22:51:42.215Z,101794.72
2023-04-06T22:54:12.736Z,101792.97
2023-04-06T22:56:44.109Z,101784.25
2023-04-06T22:59:14.284Z,101777.28
2023-04-06T23:01:44.689Z,101778.28
2023-04-06T23:04:15.038Z,101775.56
2023-04-06T23:06:45.345Z,101776.47
2023-04-06T23:09:15.797Z,101747.56
2023-04-06T23:11:46.222Z,101776.47
2023-04-06T23:14:17.200Z,101772.97
2023-04-06T23:16:47.816Z,101761.88
2023-04-06T23:19:18.299Z,101746.28
2023-04-06T23:21:48.425Z,101764.50
2023-04-06T23:24:18.584Z,101752.38
2023-04-06T23:26:48.606Z,101761.78
2023-04-06T23:29:18.677Z,101754.09
2023-04-06T23:31:48.919Z,101736.53
2023-04-06T23:34:19.100Z,101751.41
2023-04-06T23:36:49.320Z,101738.47
2023-04-06T23:39:19.628Z,101741.97
2023-04-06T23:41:49.686Z,101744.69
2023-04-06T23:44:19.877Z,101736.81
2023-04-06T23:46:50.165Z,101751.53
2023-04-06T23:49:20.405Z,101737.63
2023-04-06T23:51:50.604Z,101713.06
2023-04-06T23:54:20.706Z,101740.34
2023-04-06T23:56:52.147Z,101742.06
2023-04-06T23:59:22.451Z,101722.81
